createdAt,value
2018-08-27T00:02:25.113Z,2.10
2018-08-27T00:04:53.214Z,1.83
2018-08-27T00:07:21.308Z,1.97
2018-08-27T00:09:49.415Z,1.47
2018-08-27T00:12:17.511Z,1.93
2018-08-27T00:14:45.584Z,3.23
2018-08-27T00:17:13.707Z,2.00
2018-08-27T00:19:41.832Z,1.77
2018-08-27T00:22:10.449Z,1.50
2018-08-27T00:24:38.548Z,2.23
2018-08-27T00:27:06.655Z,1.47
2018-08-27T00:29:34.776Z,1.80
2018-08-27T00:32:03.124Z,1.70
2018-08-27T00:34:31.332Z,1.60
2018-08-27T00:36:59.431Z,1.70
2018-08-27T00:39:27.571Z,2.20
2018-08-27T00:41:55.744Z,2.07
2018-08-27T00:44:23.845Z,1.57
2018-08-27T00:46:51.956Z,2.37
2018-08-27T00:49:20.059Z,2.17
2018-08-27T00:51:48.159Z,1.60
2018-08-27T00:54:16.303Z,1.97
2018-08-27T00:56:44.427Z,1.40
2018-08-27T00:59:12.561Z,1.90
2018-08-27T01:01:40.667Z,2.10
2018-08-27T01:04:08.943Z,1.60
2018-08-27T01:06:37.056Z,2.57
2018-08-27T01:09:06.580Z,1.10
2018-08-27T01:11:34.678Z,1.17
2018-08-27T01:14:02.778Z,1.83
2018-08-27T01:16:30.884Z,1.10
2018-08-27T01:18:59.111Z,1.67
2018-08-27T01:21:27.259Z,1.93
2018-08-27T01:23:55.405Z,1.53
2018-08-27T01:26:23.592Z,1.97
2018-08-27T01:28:51.702Z,1.10
2018-08-27T01:31:19.784Z,1.87
2018-08-27T01:33:47.896Z,1.53
2018-08-27T01:36:16.060Z,1.37
2018-08-27T01:38:44.164Z,1.40
2018-08-27T01:41:12.278Z,2.50
2018-08-27T01:43:40.397Z,1.23
2018-08-27T01:46:08.600Z,1.30
2018-08-27T01:48:36.892Z,2.27
2018-08-27T01:51:05.164Z,2.40
2018-08-27T01:53:33.279Z,1.33
2018-08-27T01:56:01.412Z,2.57
2018-08-27T01:58:29.500Z,1.30
2018-08-27T02:00:57.624Z,1.00
2018-08-27T02:03:26.019Z,1.40
2018-08-27T02:05:54.121Z,1.60
2018-08-27T02:08:22.229Z,3.07
2018-08-27T02:10:50.333Z,1.37
2018-08-27T02:13:18.472Z,1.00
2018-08-27T02:15:46.611Z,1.23
2018-08-27T02:18:14.716Z,1.57
2018-08-27T02:20:42.849Z,1.40
2018-08-27T02:23:11.216Z,2.93
2018-08-27T02:25:40.805Z,2.23
2018-08-27T02:28:08.904Z,0.97
2018-08-27T02:30:37.021Z,2.37
2018-08-27T02:33:05.144Z,1.23
2018-08-27T02:35:33.244Z,1.27
2018-08-27T02:38:01.384Z,1.37
2018-08-27T02:40:29.512Z,2.60
2018-08-27T02:42:57.643Z,0.90
2018-08-27T02:45:25.735Z,1.07
2018-08-27T02:47:53.824Z,1.53
2018-08-27T02:50:21.922Z,1.40
2018-08-27T02:52:50.036Z,2.60
2018-08-27T02:55:18.145Z,2.73
2018-08-27T02:57:46.271Z,1.87
2018-08-27T03:00:14.375Z,1.50
2018-08-27T03:02:42.459Z,2.13
2018-08-27T03:05:10.566Z,1.70
2018-08-27T03:07:38.683Z,1.27
2018-08-27T03:10:06.951Z,1.27
2018-08-27T03:12:35.107Z,1.60
2018-08-27T03:15:03.233Z,1.37
2018-08-27T03:17:31.342Z,1.60
2018-08-27T03:19:59.427Z,1.03
2018-08-27T03:22:27.588Z,1.23
2018-08-27T03:24:55.722Z,1.73
2018-08-27T03:27:23.830Z,1.30
2018-08-27T03:29:51.923Z,1.20
2018-08-27T03:32:20.032Z,1.57
2018-08-27T03:34:48.187Z,1.57
2018-08-27T03:37:16.271Z,1.50
2018-08-27T03:39:44.408Z,2.03
2018-08-27T03:42:12.508Z,1.40
2018-08-27T03:44:40.635Z,1.53
2018-08-27T03:47:08.893Z,1.73
2018-08-27T03:49:37.003Z,2.33
2018-08-27T03:52:05.848Z,0.97
2018-08-27T03:54:33.963Z,0.90
2018-08-27T03:57:02.148Z,1.07
2018-08-27T03:59:30.246Z,1.43
2018-08-27T04:01:58.339Z,1.90
2018-08-27T04:04:26.484Z,1.20
2018-08-27T04:06:54.586Z,1.87
2018-08-27T04:09:22.694Z,1.37
2018-08-27T04:11:50.787Z,1.43
2018-08-27T04:14:18.944Z,1.23
2018-08-27T04:16:47.044Z,2.43
2018-08-27T04:19:15.161Z,1.10
2018-08-27T04:21:43.284Z,1.20
2018-08-27T04:24:11.389Z,1.40
2018-08-27T04:26:39.521Z,1.03
2018-08-27T04:29:07.599Z,1.90
2018-08-27T04:31:35.719Z,3.70
2018-08-27T04:34:03.836Z,1.23
2018-08-27T04:36:31.916Z,1.00
2018-08-27T04:39:00.014Z,1.20
2018-08-27T04:41:28.135Z,1.47
2018-08-27T04:43:56.275Z,1.37
2018-08-27T04:46:24.351Z,1.63
2018-08-27T04:48:52.444Z,0.93
2018-08-27T04:51:20.636Z,1.17
2018-08-27T04:53:48.724Z,2.57
2018-08-27T04:56:16.857Z,1.10
2018-08-27T04:58:46.425Z,1.60
2018-08-27T05:01:14.553Z,1.17
2018-08-27T05:03:42.684Z,1.87
2018-08-27T05:06:10.795Z,1.63
2018-08-27T05:08:38.905Z,2.63
2018-08-27T05:11:07.012Z,1.10
2018-08-27T05:13:35.191Z,1.20
2018-08-27T05:16:03.296Z,1.50
2018-08-27T05:18:31.485Z,1.53
2018-08-27T05:20:59.573Z,1.07
2018-08-27T05:23:27.710Z,1.20
2018-08-27T05:25:55.891Z,2.00
2018-08-27T05:28:23.987Z,0.80
2018-08-27T05:30:52.167Z,1.33
2018-08-27T05:33:20.334Z,1.63
2018-08-27T05:35:48.467Z,1.00
2018-08-27T05:38:16.688Z,1.17
2018-08-27T05:40:44.730Z,1.10
2018-08-27T05:43:12.839Z,1.67
2018-08-27T05:45:41.875Z,2.73
2018-08-27T05:48:10.019Z,1.63
2018-08-27T05:50:38.198Z,1.30
2018-08-27T05:53:06.332Z,0.90
2018-08-27T05:55:34.503Z,1.50
2018-08-27T05:58:02.635Z,2.13
2018-08-27T06:00:30.765Z,1.97
2018-08-27T06:02:58.882Z,1.73
2018-08-27T06:05:27.000Z,2.00
2018-08-27T06:07:55.107Z,2.43
2018-08-27T06:10:23.220Z,3.43
2018-08-27T06:12:51.622Z,2.00
2018-08-27T06:15:19.715Z,2.03
2018-08-27T06:17:47.896Z,2.80
2018-08-27T06:20:16.091Z,2.17
2018-08-27T06:22:44.162Z,2.67
2018-08-27T06:25:12.314Z,1.73
2018-08-27T06:27:40.357Z,1.50
2018-08-27T06:30:08.466Z,4.07
2018-08-27T06:32:36.633Z,4.83
2018-08-27T06:35:04.731Z,1.50
2018-08-27T06:37:32.821Z,11.20
2018-08-27T06:40:00.945Z,6.73
2018-08-27T06:42:29.087Z,2.83
2018-08-27T06:44:57.200Z,3.53
2018-08-27T06:47:25.301Z,1.83
2018-08-27T06:49:53.423Z,3.57
2018-08-27T06:52:22.820Z,8.50
2018-08-27T06:54:52.494Z,6.13
2018-08-27T06:57:20.677Z,2.93
2018-08-27T06:59:48.768Z,5.10
2018-08-27T07:02:17.073Z,3.37
2018-08-27T07:04:45.170Z,4.37
2018-08-27T07:07:13.476Z,8.40
2018-08-27T07:09:41.545Z,4.90
2018-08-27T07:12:09.624Z,5.60
2018-08-27T07:14:37.716Z,8.20
2018-08-27T07:17:06.164Z,4.50
2018-08-27T07:19:34.456Z,2.83
2018-08-27T07:22:02.584Z,6.53
2018-08-27T07:24:30.703Z,6.23
2018-08-27T07:26:58.956Z,6.30
2018-08-27T07:29:27.050Z,4.57
2018-08-27T07:31:55.135Z,5.20
2018-08-27T07:34:23.245Z,10.93
2018-08-27T07:36:51.675Z,5.50
2018-08-27T07:39:19.858Z,6.37
2018-08-27T07:41:48.020Z,8.70
2018-08-27T07:44:16.176Z,6.07
2018-08-27T07:46:44.303Z,11.37
2018-08-27T07:49:12.410Z,14.20
2018-08-27T07:51:40.622Z,9.00
2018-08-27T07:54:08.741Z,8.80
2018-08-27T07:56:36.848Z,9.53
2018-08-27T07:59:04.948Z,6.97
2018-08-27T08:01:33.674Z,9.53
2018-08-27T08:04:01.812Z,5.07
2018-08-27T08:06:29.912Z,4.93
2018-08-27T08:08:58.030Z,9.03
2018-08-27T08:11:26.133Z,6.93
2018-08-27T08:13:54.265Z,8.77
2018-08-27T08:16:22.365Z,7.17
2018-08-27T08:18:50.486Z,7.23
2018-08-27T08:21:18.634Z,6.07
2018-08-27T08:23:46.735Z,4.53
2018-08-27T08:26:14.947Z,3.10
2018-08-27T08:28:43.047Z,3.43
2018-08-27T08:31:11.652Z,2.50
2018-08-27T08:33:39.752Z,5.43
2018-08-27T08:36:07.962Z,6.10
2018-08-27T08:38:36.179Z,2.70
2018-08-27T08:41:04.422Z,2.43
2018-08-27T08:43:32.629Z,4.33
2018-08-27T08:46:00.931Z,4.27
2018-08-27T08:48:29.019Z,6.07
2018-08-27T08:50:57.103Z,3.27
2018-08-27T08:53:25.250Z,4.17
2018-08-27T08:55:54.132Z,2.90
2018-08-27T08:58:22.244Z,1.77
2018-08-27T09:00:51.678Z,3.47
2018-08-27T09:03:19.937Z,3.30
2018-08-27T09:05:48.083Z,2.33
2018-08-27T09:08:16.304Z,1.97
2018-08-27T09:10:44.339Z,1.47
2018-08-27T09:13:12.701Z,1.90
2018-08-27T09:15:40.869Z,2.67
2018-08-27T09:18:09.092Z,2.50
2018-08-27T09:20:37.237Z,1.77
2018-08-27T09:23:05.348Z,2.20
2018-08-27T09:25:33.676Z,1.80
2018-08-27T09:28:01.796Z,1.60
2018-08-27T09:30:29.937Z,3.23
2018-08-27T09:32:58.172Z,3.30
2018-08-27T09:35:26.217Z,3.70
2018-08-27T09:37:54.308Z,2.97
2018-08-27T09:40:22.400Z,4.00
2018-08-27T09:42:50.488Z,2.13
2018-08-27T09:45:18.585Z,2.87
2018-08-27T09:47:46.781Z,2.77
2018-08-27T09:50:14.960Z,1.73
2018-08-27T09:52:43.088Z,2.10
2018-08-27T09:55:11.256Z,2.03
2018-08-27T09:57:39.386Z,2.07
2018-08-27T10:00:07.461Z,3.33
2018-08-27T10:02:35.584Z,1.60
2018-08-27T10:05:03.835Z,1.77
2018-08-27T10:07:32.537Z,2.63
2018-08-27T10:10:00.620Z,2.80
2018-08-27T10:12:28.778Z,1.73
2018-08-27T10:14:57.012Z,1.63
2018-08-27T10:17:25.117Z,3.33
2018-08-27T10:19:53.532Z,3.33
2018-08-27T10:22:21.922Z,5.40
2018-08-27T10:24:49.883Z,9.30
2018-08-27T10:27:18.005Z,8.10
2018-08-27T10:29:46.136Z,8.63
2018-08-27T10:32:14.312Z,3.80
2018-08-27T10:34:42.384Z,3.30
2018-08-27T10:37:10.530Z,4.70
2018-08-27T10:39:38.803Z,7.20
2018-08-27T10:42:06.892Z,4.07
2018-08-27T10:44:34.974Z,4.93
2018-08-27T10:47:03.264Z,3.67
2018-08-27T10:49:31.356Z,5.23
2018-08-27T10:51:59.472Z,6.70
2018-08-27T10:54:27.639Z,6.23
2018-08-27T10:56:55.761Z,4.90
2018-08-27T10:59:23.833Z,6.40
2018-08-27T11:01:51.934Z,4.20
2018-08-27T11:04:20.064Z,9.27
2018-08-27T11:06:48.217Z,9.50
2018-08-27T11:09:16.339Z,5.50
2018-08-27T11:11:45.703Z,8.97
2018-08-27T11:14:13.979Z,6.73
2018-08-27T11:16:42.109Z,9.80
2018-08-27T11:19:10.263Z,8.40
2018-08-27T11:21:38.454Z,8.97
2018-08-27T11:24:14.192Z,14.97
2018-08-27T11:26:44.257Z,10.67
2018-08-27T11:29:12.452Z,10.93
2018-08-27T11:31:40.764Z,10.50
2018-08-27T11:34:09.211Z,11.63
2018-08-27T11:36:38.308Z,6.20
2018-08-27T11:39:08.278Z,8.73
2018-08-27T11:41:36.551Z,9.47
2018-08-27T11:44:04.867Z,4.77
2018-08-27T11:46:33.023Z,5.50
2018-08-27T11:49:01.827Z,10.40
2018-08-27T11:51:30.107Z,9.30
2018-08-27T11:53:58.210Z,16.80
2018-08-27T11:56:26.309Z,8.63
2018-08-27T11:58:54.439Z,4.67
2018-08-27T12:01:22.621Z,6.73
2018-08-27T12:03:50.719Z,4.40
2018-08-27T12:06:19.112Z,2.70
2018-08-27T12:08:47.262Z,3.87
2018-08-27T12:11:15.366Z,6.80
2018-08-27T12:13:43.563Z,5.30
2018-08-27T12:16:11.679Z,3.97
2018-08-27T12:18:39.907Z,3.73
2018-08-27T12:21:08.088Z,3.93
2018-08-27T12:23:36.285Z,2.80
2018-08-27T12:26:04.547Z,4.40
2018-08-27T12:28:33.228Z,2.70
2018-08-27T12:31:01.361Z,7.93
2018-08-27T12:33:29.430Z,4.23
2018-08-27T12:35:57.527Z,4.70
2018-08-27T12:38:25.638Z,3.40
2018-08-27T12:40:53.931Z,5.70
2018-08-27T12:43:24.686Z,3.50
2018-08-27T12:45:52.831Z,3.90
2018-08-27T12:48:21.028Z,8.17
2018-08-27T12:50:49.669Z,5.87
2018-08-27T12:53:17.788Z,4.63
2018-08-27T12:55:46.930Z,5.73
2018-08-27T12:58:15.388Z,2.83
2018-08-27T13:00:43.515Z,3.93
2018-08-27T13:03:11.806Z,4.60
2018-08-27T13:05:39.933Z,4.47
2018-08-27T13:08:08.250Z,5.20
2018-08-27T13:10:36.336Z,4.73
2018-08-27T13:13:05.089Z,3.70
2018-08-27T13:15:34.581Z,3.40
2018-08-27T13:18:02.712Z,1.93
2018-08-27T13:20:30.911Z,2.67
2018-08-27T13:22:59.044Z,4.10
2018-08-27T13:25:27.186Z,2.07
2018-08-27T13:27:55.448Z,4.27
2018-08-27T13:30:23.659Z,3.33
2018-08-27T13:32:51.897Z,6.47
2018-08-27T13:35:20.099Z,3.40
2018-08-27T13:37:48.236Z,3.07
2018-08-27T13:40:16.416Z,2.73
2018-08-27T13:42:44.474Z,2.27
2018-08-27T13:45:12.667Z,4.03
2018-08-27T13:47:40.782Z,5.60
2018-08-27T13:50:08.867Z,6.87
2018-08-27T13:52:38.013Z,3.53
2018-08-27T13:55:06.154Z,4.27
2018-08-27T13:57:34.295Z,4.33
2018-08-27T14:00:03.436Z,5.10
2018-08-27T14:02:31.480Z,6.90
2018-08-27T14:04:59.598Z,6.50
2018-08-27T14:07:27.923Z,4.97
2018-08-27T14:09:56.102Z,4.17
2018-08-27T14:12:24.327Z,3.53
2018-08-27T14:14:52.362Z,8.17
2018-08-27T14:17:20.628Z,6.90
2018-08-27T14:19:49.171Z,4.63
2018-08-27T14:22:17.155Z,8.17
2018-08-27T14:24:45.399Z,7.23
2018-08-27T14:27:13.528Z,7.80
2018-08-27T14:29:41.724Z,6.43
2018-08-27T14:32:09.894Z,5.17
2018-08-27T14:34:37.969Z,6.37
2018-08-27T14:37:06.496Z,4.97
2018-08-27T14:39:35.179Z,5.10
2018-08-27T14:42:03.310Z,5.17
2018-08-27T14:44:31.409Z,2.70
2018-08-27T14:46:59.507Z,3.83
2018-08-27T14:49:27.883Z,4.97
2018-08-27T14:51:55.972Z,3.73
2018-08-27T14:54:24.075Z,3.07
2018-08-27T14:56:52.696Z,5.90
2018-08-27T14:59:21.476Z,5.87
2018-08-27T15:01:49.608Z,4.50
2018-08-27T15:04:19.020Z,3.83
2018-08-27T15:06:47.216Z,8.83
2018-08-27T15:09:15.428Z,3.37
2018-08-27T15:11:43.576Z,5.20
2018-08-27T15:14:11.775Z,4.17
2018-08-27T15:16:39.905Z,4.93
2018-08-27T15:19:07.967Z,9.07
2018-08-27T15:21:36.646Z,5.53
2018-08-27T15:24:04.776Z,15.03
2018-08-27T15:26:32.894Z,5.53
2018-08-27T15:29:01.296Z,5.93
2018-08-27T15:31:29.876Z,5.60
2018-08-27T15:33:57.993Z,6.97
2018-08-27T15:36:26.687Z,5.17
2018-08-27T15:38:55.247Z,7.53
2018-08-27T15:41:23.312Z,6.40
2018-08-27T15:43:51.417Z,8.87
2018-08-27T15:46:25.078Z,8.70
2018-08-27T15:48:53.184Z,4.03
2018-08-27T15:51:21.592Z,6.67
2018-08-27T15:53:49.874Z,4.23
2018-08-27T15:56:18.156Z,3.80
2018-08-27T15:58:46.403Z,6.83
2018-08-27T16:01:14.667Z,5.77
2018-08-27T16:03:44.400Z,6.00
2018-08-27T16:06:13.071Z,8.90
2018-08-27T16:08:42.173Z,5.50
2018-08-27T16:11:10.284Z,5.87
2018-08-27T16:13:39.416Z,5.67
2018-08-27T16:16:08.324Z,4.00
2018-08-27T16:18:36.955Z,4.50
2018-08-27T16:21:05.090Z,4.03
2018-08-27T16:23:33.228Z,6.00
2018-08-27T16:26:01.355Z,6.23
2018-08-27T16:28:29.486Z,3.83
2018-08-27T16:30:57.587Z,5.53
2018-08-27T16:33:32.566Z,3.50
2018-08-27T16:36:00.672Z,4.90
2018-08-27T16:38:28.810Z,4.10
2018-08-27T16:40:56.965Z,4.23
2018-08-27T16:43:25.095Z,5.03
2018-08-27T16:45:53.225Z,7.77
2018-08-27T16:48:21.460Z,8.00
2018-08-27T16:50:49.885Z,3.60
2018-08-27T16:53:17.983Z,11.53
2018-08-27T16:55:46.105Z,6.37
2018-08-27T16:58:14.891Z,6.10
2018-08-27T17:00:43.907Z,8.60
2018-08-27T17:03:12.044Z,8.03
2018-08-27T17:05:40.297Z,7.47
2018-08-27T17:08:08.544Z,9.27
2018-08-27T17:10:36.659Z,8.07
2018-08-27T17:13:04.984Z,7.10
2018-08-27T17:15:33.122Z,8.63
2018-08-27T17:18:01.264Z,6.03
2018-08-27T17:20:29.374Z,6.13
2018-08-27T17:22:57.523Z,3.20
2018-08-27T17:25:25.650Z,7.97
2018-08-27T17:27:53.783Z,5.73
2018-08-27T17:30:22.893Z,5.53
2018-08-27T17:32:51.096Z,5.87
2018-08-27T17:35:19.208Z,7.27
2018-08-27T17:37:47.294Z,9.17
2018-08-27T17:40:15.405Z,5.63
2018-08-27T17:42:43.584Z,4.80
2018-08-27T17:45:12.955Z,7.87
2018-08-27T17:47:40.948Z,6.23
2018-08-27T17:50:09.215Z,11.73
2018-08-27T17:52:37.716Z,3.47
2018-08-27T17:55:05.960Z,7.57
2018-08-27T17:57:34.085Z,7.03
2018-08-27T18:00:02.299Z,3.50
2018-08-27T18:02:30.656Z,6.83
2018-08-27T18:04:58.921Z,3.87
2018-08-27T18:07:27.023Z,4.20
2018-08-27T18:09:55.128Z,5.17
2018-08-27T18:12:23.332Z,4.97
2018-08-27T18:14:51.439Z,6.20
2018-08-27T18:17:19.601Z,5.30
2018-08-27T18:19:47.697Z,3.73
2018-08-27T18:22:16.384Z,5.07
2018-08-27T18:24:44.799Z,4.47
2018-08-27T18:27:12.914Z,8.20
2018-08-27T18:29:41.048Z,6.23
2018-08-27T18:32:11.882Z,2.70
2018-08-27T18:34:40.410Z,4.20
2018-08-27T18:37:09.521Z,4.47
2018-08-27T18:39:37.719Z,6.60
2018-08-27T18:42:05.860Z,4.80
2018-08-27T18:44:33.949Z,5.80
2018-08-27T18:47:02.364Z,4.03
2018-08-27T18:49:30.458Z,4.53
2018-08-27T18:51:58.580Z,5.90
2018-08-27T18:54:26.761Z,5.53
2018-08-27T18:56:54.859Z,2.93
2018-08-27T18:59:23.031Z,3.97
2018-08-27T19:01:51.139Z,8.70
2018-08-27T19:04:19.236Z,2.53
2018-08-27T19:06:49.284Z,4.03
2018-08-27T19:09:18.805Z,4.60
2018-08-27T19:11:46.908Z,4.17
2018-08-27T19:14:15.024Z,6.00
2018-08-27T19:16:43.108Z,4.30
2018-08-27T19:19:12.383Z,7.20
2018-08-27T19:21:40.525Z,4.47
2018-08-27T19:24:08.814Z,3.37
2018-08-27T19:26:36.849Z,3.00
2018-08-27T19:29:05.493Z,3.43
2018-08-27T19:31:34.654Z,3.43
2018-08-27T19:34:03.523Z,3.10
2018-08-27T19:36:31.692Z,2.73
2018-08-27T19:38:59.926Z,3.57
2018-08-27T19:41:29.829Z,2.63
2018-08-27T19:43:58.088Z,2.40
2018-08-27T19:46:26.266Z,3.87
2018-08-27T19:48:54.435Z,3.23
2018-08-27T19:51:22.610Z,4.37
2018-08-27T19:53:50.694Z,4.93
2018-08-27T19:56:19.121Z,8.80
2018-08-27T19:58:47.291Z,12.23
2018-08-27T20:01:15.499Z,8.33
2018-08-27T20:03:43.761Z,5.50
2018-08-27T20:06:12.847Z,8.40
2018-08-27T20:08:40.980Z,3.73
2018-08-27T20:11:09.239Z,5.20
2018-08-27T20:13:37.468Z,6.20
2018-08-27T20:16:05.801Z,6.27
2018-08-27T20:18:33.947Z,7.10
2018-08-27T20:21:02.072Z,6.03
2018-08-27T20:23:31.184Z,3.83
2018-08-27T20:25:59.512Z,5.53
2018-08-27T20:28:27.582Z,5.10
2018-08-27T20:30:56.310Z,9.40
2018-08-27T20:33:24.409Z,9.47
2018-08-27T20:35:52.512Z,6.40
2018-08-27T20:38:22.358Z,13.17
2018-08-27T20:40:50.465Z,14.13
2018-08-27T20:43:18.572Z,12.27
2018-08-27T20:45:46.671Z,10.03
2018-08-27T20:48:14.803Z,10.90
2018-08-27T20:50:42.923Z,6.97
2018-08-27T20:53:11.043Z,9.73
2018-08-27T20:55:39.135Z,6.30
2018-08-27T20:58:07.213Z,8.87
2018-08-27T21:00:35.331Z,4.87
2018-08-27T21:03:03.536Z,9.90
2018-08-27T21:05:31.614Z,6.37
2018-08-27T21:07:59.832Z,6.20
2018-08-27T21:10:27.938Z,7.27
2018-08-27T21:12:56.047Z,6.80
2018-08-27T21:15:24.252Z,9.13
2018-08-27T21:17:53.431Z,10.10
2018-08-27T21:20:22.394Z,4.50
2018-08-27T21:22:50.730Z,7.13
2018-08-27T21:25:18.962Z,4.27
2018-08-27T21:27:48.048Z,5.37
2018-08-27T21:30:17.462Z,5.53
2018-08-27T21:32:45.564Z,5.47
2018-08-27T21:35:13.708Z,4.60
2018-08-27T21:37:41.827Z,5.00
2018-08-27T21:40:09.916Z,5.00
2018-08-27T21:42:38.029Z,6.70
2018-08-27T21:45:06.248Z,6.67
2018-08-27T21:47:34.339Z,4.83
2018-08-27T21:50:02.468Z,6.80
2018-08-27T21:52:30.591Z,4.70
2018-08-27T21:54:58.720Z,5.73
2018-08-27T21:57:26.844Z,4.97
2018-08-27T21:59:54.935Z,5.20
2018-08-27T22:02:28.368Z,5.60
2018-08-27T22:04:56.482Z,4.90
2018-08-27T22:07:24.553Z,4.00
2018-08-27T22:09:52.680Z,6.17
2018-08-27T22:12:20.764Z,3.03
2018-08-27T22:14:48.847Z,8.33
2018-08-27T22:17:16.979Z,5.93
2018-08-27T22:19:45.063Z,4.90
2018-08-27T22:22:13.230Z,3.43
2018-08-27T22:24:41.345Z,3.77
2018-08-27T22:27:09.435Z,4.43
2018-08-27T22:29:37.548Z,3.87
2018-08-27T22:32:05.803Z,3.67
2018-08-27T22:34:33.923Z,3.83
2018-08-27T22:37:02.023Z,4.83
2018-08-27T22:39:30.144Z,4.33
2018-08-27T22:41:58.243Z,3.83
2018-08-27T22:44:26.359Z,3.60
2018-08-27T22:46:54.520Z,3.17
2018-08-27T22:49:22.619Z,4.73
2018-08-27T22:51:50.722Z,5.83
2018-08-27T22:54:18.847Z,5.27
2018-08-27T22:56:46.937Z,5.67
2018-08-27T22:59:15.695Z,5.17
2018-08-27T23:01:43.987Z,4.00
2018-08-27T23:04:17.427Z,4.43
2018-08-27T23:06:45.563Z,4.17
2018-08-27T23:09:13.659Z,3.80
2018-08-27T23:11:42.123Z,5.40
2018-08-27T23:14:10.247Z,4.33
2018-08-27T23:16:38.371Z,4.90
2018-08-27T23:19:06.487Z,3.30
2018-08-27T23:21:34.679Z,3.57
2018-08-27T23:24:02.795Z,4.50
2018-08-27T23:26:30.931Z,4.37
2018-08-27T23:28:59.072Z,4.70
2018-08-27T23:31:27.167Z,2.43
2018-08-27T23:33:55.419Z,4.20
2018-08-27T23:36:23.840Z,6.67
2018-08-27T23:38:51.992Z,4.20
2018-08-27T23:41:20.112Z,3.70
2018-08-27T23:43:48.358Z,6.83
2018-08-27T23:46:16.447Z,4.80
2018-08-27T23:48:44.591Z,4.30
2018-08-27T23:51:12.692Z,4.33
2018-08-27T23:53:40.807Z,3.90
2018-08-27T23:56:08.911Z,5.27
2018-08-27T23:58:37.063Z,4.87
